PWSweather.com
Personal Weather Stations
Station Observations
KTXPLANO70
Kemper Estates, Plano, TX

Kemper EstatesPlano, TX

Lat: 33.0674, Lon: -96.7659

Elevation: 737

Station Type: Davis Vantage Pro2

http://weather.dallasdawg.com

High Low Average
Temperature 33.3°F0.7°F 11.6°F-11.3°F 22.0°F-5.6°F
Dew Point 9.4°F-12.6°F 1.9°F-16.7°F 4.7°F-15.2°F
Winds 5.8 mph NNE9.3 mph NNE Calm Calm 2.0 mph 3.2 mph
Wind Gusts 8.1 mph13.0 mph -- 3.2 mph5.1 mph
Humidity 68% 28% 49%
Pressure 30.89 in1046.10 in 30.68 in1038.90 in -
Precipitation 0.00 in0.00 in - -
Hour Temp Dew Point Humidity Winds Wind Gusts Pressure Precip Precip Rate Daily Precip Total
12:00 AM 16.1°F-8.8°C 1.9°F-16.7°C 53% 1.2 mph NW1.9 kmh NW 2.3 mph3.7 kmh 30.84 in1044.4 mb - 0.00 in0.0 mm 0.00 in0.0 mm
12:05 AM 15.9°F-8.9°C 2.2°F-16.6°C 54% 1.2 mph NNW1.9 kmh NNW 3.5 mph5.6 kmh 30.84 in1044.4 mb - 0.00 in0.0 mm 0.00 in0.0 mm
12:10 AM 15.8°F-9.0°C 2.1°F-16.6°C 54% 2.3 mph N3.7 kmh N 3.5 mph5.6 kmh 30.84 in1044.4 mb - 0.00 in0.0 mm 0.00 in0.0 mm
12:15 AM 15.8°F-9.0°C 2.1°F-16.6°C 54% 2.3 mph NNW3.7 kmh NNW 3.5 mph5.6 kmh 30.84 in1044.4 mb - 0.00 in0.0 mm 0.00 in0.0 mm
12:20 AM 15.7°F-9.1°C 1.9°F-16.7°C 54% 1.2 mph NNW1.9 kmh NNW 2.3 mph3.7 kmh 30.84 in1044.4 mb - 0.00 in0.0 mm 0.00 in0.0 mm
12:25 AM 15.5°F-9.2°C 2.2°F-16.6°C 55% 1.2 mph N1.9 kmh N 2.3 mph3.7 kmh 30.83 in1044.0 mb - 0.00 in0.0 mm 0.00 in0.0 mm
12:30 AM 15.4°F-9.2°C 2.4°F-16.4°C 56% 1.2 mph N1.9 kmh N 3.5 mph5.6 kmh 30.83 in1044.0 mb - 0.00 in0.0 mm 0.00 in0.0 mm
12:35 AM 15.3°F-9.3°C 2.4°F-16.4°C 56% 2.3 mph N3.7 kmh N 3.5 mph5.6 kmh 30.83 in1044.0 mb - 0.00 in0.0 mm 0.00 in0.0 mm
12:40 AM 15.4°F-9.2°C 2.9°F-16.2°C 57% 1.2 mph NNW1.9 kmh NNW 2.3 mph3.7 kmh 30.83 in1044.0 mb - 0.00 in0.0 mm 0.00 in0.0 mm
12:45 AM 15.6°F-9.1°C 2.6°F-16.3°C 56% 1.2 mph NNW1.9 kmh NNW 2.3 mph3.7 kmh 30.83 in1044.0 mb - 0.00 in0.0 mm 0.00 in0.0 mm
12:50 AM 15.4°F-9.2°C 2.5°F-16.4°C 56% 2.3 mph N3.7 kmh N 3.5 mph5.6 kmh 30.83 in1044.0 mb - 0.00 in0.0 mm 0.00 in0.0 mm
12:55 AM 15.5°F-9.2°C 2.6°F-16.3°C 56% 2.3 mph NW3.7 kmh NW 3.5 mph5.6 kmh 30.83 in1044.0 mb - 0.00 in0.0 mm 0.00 in0.0 mm
01:00 AM 15.5°F-9.2°C 2.5°F-16.4°C 56% 1.2 mph NNW1.9 kmh NNW 3.5 mph5.6 kmh 30.83 in1044.0 mb - 0.00 in0.0 mm 0.00 in0.0 mm
01:05 AM 15.3°F-9.3°C 2.4°F-16.4°C 56% 2.3 mph NW3.7 kmh NW 4.6 mph7.4 kmh 30.83 in1044.0 mb - 0.00 in0.0 mm 0.00 in0.0 mm
01:10 AM 15.4°F-9.2°C 2.5°F-16.4°C 56% 1.2 mph NW1.9 kmh NW 1.2 mph1.9 kmh 30.83 in1044.0 mb - 0.00 in0.0 mm 0.00 in0.0 mm
01:15 AM 15.3°F-9.3°C 2.4°F-16.4°C 56% 2.3 mph NNW3.7 kmh NNW 3.5 mph5.6 kmh 30.83 in1044.0 mb - 0.00 in0.0 mm 0.00 in0.0 mm
01:20 AM 15.2°F-9.3°C 2.3°F-16.5°C 56% 1.2 mph NNW1.9 kmh NNW 3.5 mph5.6 kmh 30.83 in1044.0 mb - 0.00 in0.0 mm 0.00 in0.0 mm
01:25 AM 15.3°F-9.3°C 2.4°F-16.4°C 56% 2.3 mph NW3.7 kmh NW 1.2 mph1.9 kmh 30.84 in1044.4 mb - 0.00 in0.0 mm 0.00 in0.0 mm
01:30 AM 15.1°F-9.4°C 2.2°F-16.6°C 56% 1.2 mph NW1.9 kmh NW 3.5 mph5.6 kmh 30.83 in1044.0 mb - 0.00 in0.0 mm 0.00 in0.0 mm
01:35 AM 15.1°F-9.4°C 2.6°F-16.3°C 57% 1.2 mph NW1.9 kmh NW 3.5 mph5.6 kmh 30.83 in1044.0 mb - 0.00 in0.0 mm 0.00 in0.0 mm
01:40 AM 14.9°F-9.5°C 2.4°F-16.4°C 57% 2.3 mph NNW3.7 kmh NNW 3.5 mph5.6 kmh 30.83 in1044.0 mb - 0.00 in0.0 mm 0.00 in0.0 mm
01:45 AM 14.7°F-9.6°C 2.2°F-16.6°C 57% 2.3 mph NNW3.7 kmh NNW 4.6 mph7.4 kmh 30.83 in1044.0 mb - 0.00 in0.0 mm 0.00 in0.0 mm
01:50 AM 14.7°F-9.6°C 2.2°F-16.6°C 57% 2.3 mph N3.7 kmh N 2.3 mph3.7 kmh 30.83 in1044.0 mb - 0.00 in0.0 mm 0.00 in0.0 mm
01:55 AM 14.9°F-9.5°C 2.4°F-16.4°C 57% 1.2 mph N1.9 kmh N 3.5 mph5.6 kmh 30.83 in1044.0 mb - 0.00 in0.0 mm 0.00 in0.0 mm
02:00 AM 14.8°F-9.6°C 2.3°F-16.5°C 57% 1.2 mph NNW1.9 kmh NNW 2.3 mph3.7 kmh 30.83 in1044.0 mb - 0.00 in0.0 mm 0.00 in0.0 mm
02:05 AM 14.8°F-9.6°C 2.3°F-16.5°C 57% 2.3 mph NNW3.7 kmh NNW 2.3 mph3.7 kmh 30.83 in1044.0 mb - 0.00 in0.0 mm 0.00 in0.0 mm
02:10 AM 14.7°F-9.6°C 2.2°F-16.6°C 57% 1.2 mph NNW1.9 kmh NNW 1.2 mph1.9 kmh 30.83 in1044.0 mb - 0.00 in0.0 mm 0.00 in0.0 mm
02:15 AM 14.8°F-9.6°C 2.3°F-16.5°C 57% 1.2 mph NNW1.9 kmh NNW 1.2 mph1.9 kmh 30.84 in1044.4 mb - 0.00 in0.0 mm 0.00 in0.0 mm
02:20 AM 14.6°F-9.7°C 2.5°F-16.4°C 58% 1.2 mph NW1.9 kmh NW 4.6 mph7.4 kmh 30.84 in1044.4 mb - 0.00 in0.0 mm 0.00 in0.0 mm
02:25 AM 14.6°F-9.7°C 2.5°F-16.4°C 58% 2.3 mph NW3.7 kmh NW 3.5 mph5.6 kmh 30.84 in1044.4 mb - 0.00 in0.0 mm 0.00 in0.0 mm
02:30 AM 14.6°F-9.7°C 2.5°F-16.4°C 58% 2.3 mph NW3.7 kmh NW 3.5 mph5.6 kmh 30.84 in1044.4 mb - 0.00 in0.0 mm 0.00 in0.0 mm
02:35 AM 14.6°F-9.7°C 2.5°F-16.4°C 58% 1.2 mph NW1.9 kmh NW 3.5 mph5.6 kmh 30.84 in1044.4 mb - 0.00 in0.0 mm 0.00 in0.0 mm
02:40 AM 14.5°F-9.7°C 2.4°F-16.4°C 58% 1.2 mph NW1.9 kmh NW 2.3 mph3.7 kmh 30.84 in1044.4 mb - 0.00 in0.0 mm 0.00 in0.0 mm
02:45 AM 14.4°F-9.8°C 2.7°F-16.3°C 59% 2.3 mph NW3.7 kmh NW 4.6 mph7.4 kmh 30.84 in1044.4 mb - 0.00 in0.0 mm 0.00 in0.0 mm
02:50 AM 14.3°F-9.8°C 2.6°F-16.3°C 59% 1.2 mph NW1.9 kmh NW 3.5 mph5.6 kmh 30.84 in1044.4 mb - 0.00 in0.0 mm 0.00 in0.0 mm
02:55 AM 14.3°F-9.8°C 2.6°F-16.3°C 59% 1.2 mph NW1.9 kmh NW 2.3 mph3.7 kmh 30.84 in1044.4 mb - 0.00 in0.0 mm 0.00 in0.0 mm
03:00 AM 14.3°F-9.8°C 2.6°F-16.3°C 59% 3.5 mph NW5.6 kmh NW 4.6 mph7.4 kmh 30.84 in1044.4 mb - 0.00 in0.0 mm 0.00 in0.0 mm
03:05 AM 14.3°F-9.8°C 2.6°F-16.3°C 59% 1.2 mph NW1.9 kmh NW 2.3 mph3.7 kmh 30.84 in1044.4 mb - 0.00 in0.0 mm 0.00 in0.0 mm
03:10 AM 14.0°F-10.0°C 2.7°F-16.3°C 60% 2.3 mph NW3.7 kmh NW 4.6 mph7.4 kmh 30.84 in1044.4 mb - 0.00 in0.0 mm 0.00 in0.0 mm
03:15 AM 13.9°F-10.1°C 2.6°F-16.3°C 60% 1.2 mph NNW1.9 kmh NNW 3.5 mph5.6 kmh 30.84 in1044.4 mb - 0.00 in0.0 mm 0.00 in0.0 mm
03:20 AM 13.7°F-10.2°C 2.4°F-16.4°C 60% 2.3 mph NNW3.7 kmh NNW 4.6 mph7.4 kmh 30.84 in1044.4 mb - 0.00 in0.0 mm 0.00 in0.0 mm
03:25 AM 13.7°F-10.2°C 2.3°F-16.5°C 60% 1.2 mph NNW1.9 kmh NNW 2.3 mph3.7 kmh 30.84 in1044.4 mb - 0.00 in0.0 mm 0.00 in0.0 mm
03:30 AM 13.4°F-10.3°C 2.4°F-16.4°C 61% 2.3 mph NNW3.7 kmh NNW 3.5 mph5.6 kmh 30.84 in1044.4 mb - 0.00 in0.0 mm 0.00 in0.0 mm
03:35 AM 13.7°F-10.2°C 2.3°F-16.5°C 60% 1.2 mph NW1.9 kmh NW 2.3 mph3.7 kmh 30.84 in1044.4 mb - 0.00 in0.0 mm 0.00 in0.0 mm
03:40 AM 13.6°F-10.2°C 2.3°F-16.5°C 60% 1.2 mph NW1.9 kmh NW 2.3 mph3.7 kmh 30.84 in1044.4 mb - 0.00 in0.0 mm 0.00 in0.0 mm
03:45 AM 13.5°F-10.3°C 2.6°F-16.3°C 61% 1.2 mph NW1.9 kmh NW 2.3 mph3.7 kmh 30.84 in1044.4 mb - 0.00 in0.0 mm 0.00 in0.0 mm
03:50 AM 13.4°F-10.3°C 2.4°F-16.4°C 61% 2.3 mph NW3.7 kmh NW 3.5 mph5.6 kmh 30.84 in1044.4 mb - 0.00 in0.0 mm 0.00 in0.0 mm
03:55 AM 13.2°F-10.4°C 2.3°F-16.5°C 61% Calm Calm 1.2 mph1.9 kmh 30.84 in1044.4 mb - 0.00 in0.0 mm 0.00 in0.0 mm
04:00 AM 13.1°F-10.5°C 2.5°F-16.4°C 62% 1.2 mph NW1.9 kmh NW 2.3 mph3.7 kmh 30.85 in1044.7 mb - 0.00 in0.0 mm 0.00 in0.0 mm
04:05 AM 13.1°F-10.5°C 2.5°F-16.4°C 62% Calm Calm 1.2 mph1.9 kmh 30.84 in1044.4 mb - 0.00 in0.0 mm 0.00 in0.0 mm
04:10 AM 13.0°F-10.6°C 2.4°F-16.4°C 62% Calm Calm -- 30.85 in1044.7 mb - 0.00 in0.0 mm 0.00 in0.0 mm
04:15 AM 12.8°F-10.7°C 2.2°F-16.6°C 62% Calm Calm 1.2 mph1.9 kmh 30.84 in1044.4 mb - 0.00 in0.0 mm 0.00 in0.0 mm
04:20 AM 12.7°F-10.7°C 2.5°F-16.4°C 63% 1.2 mph NW1.9 kmh NW 2.3 mph3.7 kmh 30.84 in1044.4 mb - 0.00 in0.0 mm 0.00 in0.0 mm
04:25 AM 12.7°F-10.7°C 2.5°F-16.4°C 63% 1.2 mph NW1.9 kmh NW 2.3 mph3.7 kmh 30.84 in1044.4 mb - 0.00 in0.0 mm 0.00 in0.0 mm
04:30 AM 12.8°F-10.7°C 2.6°F-16.3°C 63% 1.2 mph NW1.9 kmh NW 2.3 mph3.7 kmh 30.84 in1044.4 mb - 0.00 in0.0 mm 0.00 in0.0 mm
04:35 AM 12.7°F-10.7°C 2.5°F-16.4°C 63% 2.3 mph NNW3.7 kmh NNW 4.6 mph7.4 kmh 30.84 in1044.4 mb - 0.00 in0.0 mm 0.00 in0.0 mm
04:40 AM 12.8°F-10.7°C 2.6°F-16.3°C 63% 1.2 mph N1.9 kmh N 3.5 mph5.6 kmh 30.84 in1044.4 mb - 0.00 in0.0 mm 0.00 in0.0 mm
04:45 AM 13.0°F-10.6°C 2.8°F-16.2°C 63% Calm Calm 1.2 mph1.9 kmh 30.84 in1044.4 mb - 0.00 in0.0 mm 0.00 in0.0 mm
04:50 AM 13.0°F-10.6°C 3.1°F-16.1°C 64% 1.2 mph N1.9 kmh N 1.2 mph1.9 kmh 30.84 in1044.4 mb - 0.00 in0.0 mm 0.00 in0.0 mm
04:55 AM 12.7°F-10.7°C 2.8°F-16.2°C 64% Calm Calm 1.2 mph1.9 kmh 30.84 in1044.4 mb - 0.00 in0.0 mm 0.00 in0.0 mm
05:00 AM 12.5°F-10.8°C 2.6°F-16.3°C 64% 2.3 mph N3.7 kmh N 3.5 mph5.6 kmh 30.84 in1044.4 mb - 0.00 in0.0 mm 0.00 in0.0 mm
05:05 AM 12.4°F-10.9°C 2.9°F-16.2°C 65% 1.2 mph N1.9 kmh N 2.3 mph3.7 kmh 30.84 in1044.4 mb - 0.00 in0.0 mm 0.00 in0.0 mm
05:10 AM 12.4°F-10.9°C 2.9°F-16.2°C 65% Calm Calm 1.2 mph1.9 kmh 30.84 in1044.4 mb - 0.00 in0.0 mm 0.00 in0.0 mm
05:15 AM 12.5°F-10.8°C 2.6°F-16.3°C 64% 1.2 mph N1.9 kmh N 1.2 mph1.9 kmh 30.84 in1044.4 mb - 0.00 in0.0 mm 0.00 in0.0 mm
05:20 AM 12.7°F-10.7°C 2.8°F-16.2°C 64% 1.2 mph N1.9 kmh N 3.5 mph5.6 kmh 30.84 in1044.4 mb - 0.00 in0.0 mm 0.00 in0.0 mm
05:25 AM 12.8°F-10.7°C 2.6°F-16.3°C 63% 1.2 mph N1.9 kmh N 2.3 mph3.7 kmh 30.84 in1044.4 mb - 0.00 in0.0 mm 0.00 in0.0 mm
05:30 AM 12.6°F-10.8°C 2.4°F-16.4°C 63% 1.2 mph N1.9 kmh N 1.2 mph1.9 kmh 30.84 in1044.4 mb - 0.00 in0.0 mm 0.00 in0.0 mm
05:35 AM 12.5°F-10.8°C 2.6°F-16.3°C 64% 1.2 mph N1.9 kmh N 2.3 mph3.7 kmh 30.84 in1044.4 mb - 0.00 in0.0 mm 0.00 in0.0 mm
05:40 AM 12.5°F-10.8°C 2.2°F-16.6°C 63% Calm Calm -- 30.84 in1044.4 mb - 0.00 in0.0 mm 0.00 in0.0 mm
05:45 AM 12.2°F-11.0°C 2.4°F-16.4°C 64% Calm Calm -- 30.84 in1044.4 mb - 0.00 in0.0 mm 0.00 in0.0 mm
05:50 AM 12.1°F-11.1°C 2.5°F-16.4°C 65% Calm Calm -- 30.84 in1044.4 mb - 0.00 in0.0 mm 0.00 in0.0 mm
05:55 AM 11.9°F-11.2°C 2.4°F-16.4°C 65% Calm Calm -- 30.84 in1044.4 mb - 0.00 in0.0 mm 0.00 in0.0 mm
06:00 AM 11.9°F-11.2°C 2.7°F-16.3°C 66% Calm Calm -- 30.84 in1044.4 mb - 0.00 in0.0 mm 0.00 in0.0 mm
06:05 AM 11.9°F-11.2°C 2.7°F-16.3°C 66% 1.2 mph N1.9 kmh N 1.2 mph1.9 kmh 30.84 in1044.4 mb - 0.00 in0.0 mm 0.00 in0.0 mm
06:10 AM 11.8°F-11.2°C 2.6°F-16.3°C 66% 1.2 mph N1.9 kmh N 1.2 mph1.9 kmh 30.84 in1044.4 mb - 0.00 in0.0 mm 0.00 in0.0 mm
06:15 AM 11.7°F-11.3°C 2.8°F-16.2°C 67% 1.2 mph N1.9 kmh N 2.3 mph3.7 kmh 30.84 in1044.4 mb - 0.00 in0.0 mm 0.00 in0.0 mm
06:20 AM 11.6°F-11.3°C 3.1°F-16.1°C 68% 1.2 mph N1.9 kmh N 2.3 mph3.7 kmh 30.84 in1044.4 mb - 0.00 in0.0 mm 0.00 in0.0 mm
06:25 AM 11.9°F-11.2°C 3.4°F-15.9°C 68% 2.3 mph N3.7 kmh N 3.5 mph5.6 kmh 30.84 in1044.4 mb - 0.00 in0.0 mm 0.00 in0.0 mm
06:30 AM 12.3°F-10.9°C 3.4°F-15.9°C 67% 3.5 mph NE5.6 kmh NE 4.6 mph7.4 kmh 30.83 in1044.0 mb - 0.00 in0.0 mm 0.00 in0.0 mm
06:35 AM 12.6°F-10.8°C 3.7°F-15.7°C 67% 2.3 mph NE3.7 kmh NE 3.5 mph5.6 kmh 30.83 in1044.0 mb - 0.00 in0.0 mm 0.00 in0.0 mm
06:40 AM 12.7°F-10.7°C 3.5°F-15.8°C 66% 3.5 mph NE5.6 kmh NE 3.5 mph5.6 kmh 30.83 in1044.0 mb - 0.00 in0.0 mm 0.00 in0.0 mm
06:45 AM 12.8°F-10.7°C 3.6°F-15.8°C 66% 3.5 mph NNE5.6 kmh NNE 4.6 mph7.4 kmh 30.83 in1044.0 mb - 0.00 in0.0 mm 0.00 in0.0 mm
06:50 AM 12.9°F-10.6°C 3.9°F-15.6°C 67% 3.5 mph NE5.6 kmh NE 4.6 mph7.4 kmh 30.83 in1044.0 mb - 0.00 in0.0 mm 0.00 in0.0 mm
06:55 AM 12.8°F-10.7°C 3.6°F-15.8°C 66% 2.3 mph NE3.7 kmh NE 4.6 mph7.4 kmh 30.83 in1044.0 mb - 0.00 in0.0 mm 0.00 in0.0 mm
07:00 AM 12.8°F-10.7°C 3.2°F-16.0°C 65% 2.3 mph NE3.7 kmh NE 4.6 mph7.4 kmh 30.83 in1044.0 mb - 0.00 in0.0 mm 0.00 in0.0 mm
07:05 AM 12.8°F-10.7°C 3.2°F-16.0°C 65% 2.3 mph NE3.7 kmh NE 3.5 mph5.6 kmh 30.83 in1044.0 mb - 0.00 in0.0 mm 0.00 in0.0 mm
07:10 AM 12.8°F-10.7°C 3.2°F-16.0°C 65% 2.3 mph NE3.7 kmh NE 4.6 mph7.4 kmh 30.83 in1044.0 mb - 0.00 in0.0 mm 0.00 in0.0 mm
07:15 AM 12.7°F-10.7°C 3.1°F-16.1°C 65% 3.5 mph NE5.6 kmh NE 4.6 mph7.4 kmh 30.83 in1044.0 mb - 0.00 in0.0 mm 0.00 in0.0 mm
07:20 AM 12.6°F-10.8°C 3.1°F-16.1°C 65% 2.3 mph NE3.7 kmh NE 4.6 mph7.4 kmh 30.83 in1044.0 mb - 0.00 in0.0 mm 0.00 in0.0 mm
07:25 AM 12.5°F-10.8°C 3.3°F-15.9°C 66% 1.2 mph NE1.9 kmh NE 1.2 mph1.9 kmh 30.83 in1044.0 mb - 0.00 in0.0 mm 0.00 in0.0 mm
07:30 AM 12.2°F-11.0°C 3.0°F-16.1°C 66% Calm Calm -- 30.83 in1044.0 mb - 0.00 in0.0 mm 0.00 in0.0 mm
07:35 AM 12.4°F-10.9°C 3.5°F-15.8°C 67% 3.5 mph NE5.6 kmh NE 4.6 mph7.4 kmh 30.83 in1044.0 mb - 0.00 in0.0 mm 0.00 in0.0 mm
07:40 AM 12.5°F-10.8°C 3.3°F-15.9°C 66% 1.2 mph NE1.9 kmh NE 2.3 mph3.7 kmh 30.83 in1044.0 mb - 0.00 in0.0 mm 0.00 in0.0 mm
07:45 AM 12.6°F-10.8°C 3.3°F-15.9°C 66% Calm Calm 1.2 mph1.9 kmh 30.84 in1044.4 mb - 0.00 in0.0 mm 0.00 in0.0 mm
07:50 AM 12.6°F-10.8°C 3.4°F-15.9°C 66% Calm Calm -- 30.84 in1044.4 mb - 0.00 in0.0 mm 0.00 in0.0 mm
07:55 AM 12.8°F-10.7°C 3.6°F-15.8°C 66% 3.5 mph NNE5.6 kmh NNE 3.5 mph5.6 kmh 30.84 in1044.4 mb - 0.00 in0.0 mm 0.00 in0.0 mm
08:00 AM 13.1°F-10.5°C 3.6°F-15.8°C 65% 3.5 mph NE5.6 kmh NE 4.6 mph7.4 kmh 30.84 in1044.4 mb - 0.00 in0.0 mm 0.00 in0.0 mm
08:05 AM 13.4°F-10.3°C 3.5°F-15.8°C 64% 3.5 mph NE5.6 kmh NE 4.6 mph7.4 kmh 30.84 in1044.4 mb - 0.00 in0.0 mm 0.00 in0.0 mm
08:10 AM 13.6°F-10.2°C 3.7°F-15.7°C 64% 4.6 mph NNE7.4 kmh NNE 5.8 mph9.3 kmh 30.84 in1044.4 mb - 0.00 in0.0 mm 0.00 in0.0 mm
08:15 AM 13.9°F-10.1°C 3.9°F-15.6°C 64% 3.5 mph NNE5.6 kmh NNE 4.6 mph7.4 kmh 30.84 in1044.4 mb - 0.00 in0.0 mm 0.00 in0.0 mm
08:20 AM 14.1°F-9.9°C 3.8°F-15.7°C 63% 4.6 mph NE7.4 kmh NE 8.1 mph13.0 kmh 30.85 in1044.7 mb - 0.00 in0.0 mm 0.00 in0.0 mm
08:25 AM 14.4°F-9.8°C 4.1°F-15.5°C 63% 5.8 mph NNE9.3 kmh NNE 8.1 mph13.0 kmh 30.84 in1044.4 mb - 0.00 in0.0 mm 0.00 in0.0 mm
08:30 AM 14.8°F-9.6°C 4.5°F-15.3°C 63% 1.2 mph N1.9 kmh N 3.5 mph5.6 kmh 30.85 in1044.7 mb - 0.00 in0.0 mm 0.00 in0.0 mm
08:35 AM 15.0°F-9.4°C 4.0°F-15.6°C 61% 3.5 mph N5.6 kmh N 4.6 mph7.4 kmh 30.85 in1044.7 mb - 0.00 in0.0 mm 0.00 in0.0 mm
08:40 AM 15.6°F-9.1°C 4.1°F-15.5°C 60% 3.5 mph NNE5.6 kmh NNE 5.8 mph9.3 kmh 30.85 in1044.7 mb - 0.00 in0.0 mm 0.00 in0.0 mm
08:45 AM 15.8°F-9.0°C 4.4°F-15.3°C 60% 2.3 mph NE3.7 kmh NE 3.5 mph5.6 kmh 30.86 in1045.0 mb - 0.00 in0.0 mm 0.00 in0.0 mm
08:50 AM 16.0°F-8.9°C 4.1°F-15.5°C 59% 3.5 mph N5.6 kmh N 4.6 mph7.4 kmh 30.85 in1044.7 mb - 0.00 in0.0 mm 0.00 in0.0 mm
08:55 AM 16.6°F-8.6°C 5.1°F-14.9°C 60% 2.3 mph N3.7 kmh N 4.6 mph7.4 kmh 30.86 in1045.0 mb - 0.00 in0.0 mm 0.00 in0.0 mm
09:00 AM 16.8°F-8.4°C 5.0°F-15.0°C 59% 1.2 mph NW1.9 kmh NW 2.3 mph3.7 kmh 30.86 in1045.0 mb - 0.00 in0.0 mm 0.00 in0.0 mm
09:05 AM 17.0°F-8.3°C 4.8°F-15.1°C 58% 2.3 mph NNE3.7 kmh NNE 3.5 mph5.6 kmh 30.86 in1045.0 mb - 0.00 in0.0 mm 0.00 in0.0 mm
09:10 AM 17.4°F-8.1°C 4.7°F-15.2°C 57% 2.3 mph ENE3.7 kmh ENE 3.5 mph5.6 kmh 30.86 in1045.0 mb - 0.00 in0.0 mm 0.00 in0.0 mm
09:15 AM 17.7°F-7.9°C 5.0°F-15.0°C 57% Calm Calm 3.5 mph5.6 kmh 30.86 in1045.0 mb - 0.00 in0.0 mm 0.00 in0.0 mm
09:20 AM 17.9°F-7.8°C 5.2°F-14.9°C 57% 2.3 mph E3.7 kmh E 3.5 mph5.6 kmh 30.86 in1045.0 mb - 0.00 in0.0 mm 0.00 in0.0 mm
09:25 AM 18.0°F-7.8°C 4.9°F-15.1°C 56% 3.5 mph ENE5.6 kmh ENE 4.6 mph7.4 kmh 30.87 in1045.4 mb - 0.00 in0.0 mm 0.00 in0.0 mm
09:30 AM 18.0°F-7.8°C 4.5°F-15.3°C 55% 1.2 mph ENE1.9 kmh ENE 1.2 mph1.9 kmh 30.87 in1045.4 mb - 0.00 in0.0 mm 0.00 in0.0 mm
09:35 AM 18.0°F-7.8°C 4.1°F-15.5°C 54% Calm Calm 1.2 mph1.9 kmh 30.87 in1045.4 mb - 0.00 in0.0 mm 0.00 in0.0 mm
09:40 AM 18.9°F-7.3°C 4.6°F-15.2°C 53% 2.3 mph S3.7 kmh S 2.3 mph3.7 kmh 30.87 in1045.4 mb - 0.00 in0.0 mm 0.00 in0.0 mm
09:45 AM 18.8°F-7.3°C 4.5°F-15.3°C 53% Calm Calm 2.3 mph3.7 kmh 30.88 in1045.7 mb - 0.00 in0.0 mm 0.00 in0.0 mm
09:50 AM 19.0°F-7.2°C 4.3°F-15.4°C 52% Calm Calm 1.2 mph1.9 kmh 30.88 in1045.7 mb - 0.00 in0.0 mm 0.00 in0.0 mm
09:55 AM 20.4°F-6.4°C 5.2°F-14.9°C 51% 1.2 mph S1.9 kmh S 3.5 mph5.6 kmh 30.88 in1045.7 mb - 0.00 in0.0 mm 0.00 in0.0 mm
10:00 AM 20.3°F-6.5°C 5.0°F-15.0°C 51% 3.5 mph SSW5.6 kmh SSW 4.6 mph7.4 kmh 30.88 in1045.7 mb - 0.00 in0.0 mm 0.00 in0.0 mm
10:05 AM 20.8°F-6.2°C 5.5°F-14.7°C 51% 3.5 mph SW5.6 kmh SW 3.5 mph5.6 kmh 30.88 in1045.7 mb - 0.00 in0.0 mm 0.00 in0.0 mm
10:10 AM 21.1°F-6.1°C 5.8°F-14.6°C 51% 3.5 mph SW5.6 kmh SW 4.6 mph7.4 kmh 30.88 in1045.7 mb - 0.00 in0.0 mm 0.00 in0.0 mm
10:15 AM 21.9°F-5.6°C 5.2°F-14.9°C 48% 2.3 mph SW3.7 kmh SW 5.8 mph9.3 kmh 30.89 in1046.1 mb - 0.00 in0.0 mm 0.00 in0.0 mm
10:20 AM 21.7°F-5.7°C 5.4°F-14.8°C 49% 2.3 mph SSW3.7 kmh SSW 4.6 mph7.4 kmh 30.89 in1046.1 mb - 0.00 in0.0 mm 0.00 in0.0 mm
10:25 AM 21.6°F-5.8°C 4.9°F-15.1°C 48% 2.3 mph SSW3.7 kmh SSW 4.6 mph7.4 kmh 30.89 in1046.1 mb - 0.00 in0.0 mm 0.00 in0.0 mm
10:30 AM 22.6°F-5.2°C 4.9°F-15.1°C 46% 3.5 mph WSW5.6 kmh WSW 3.5 mph5.6 kmh 30.89 in1046.1 mb - 0.00 in0.0 mm 0.00 in0.0 mm
10:35 AM 21.7°F-5.7°C 4.1°F-15.5°C 46% 2.3 mph SW3.7 kmh SW 4.6 mph7.4 kmh 30.88 in1045.7 mb - 0.00 in0.0 mm 0.00 in0.0 mm
10:40 AM 23.1°F-4.9°C 5.4°F-14.8°C 46% 3.5 mph WSW5.6 kmh WSW 4.6 mph7.4 kmh 30.88 in1045.7 mb - 0.00 in0.0 mm 0.00 in0.0 mm
10:45 AM 23.7°F-4.6°C 5.4°F-14.8°C 45% 3.5 mph WSW5.6 kmh WSW 4.6 mph7.4 kmh 30.88 in1045.7 mb - 0.00 in0.0 mm 0.00 in0.0 mm
10:50 AM 24.1°F-4.4°C 5.3°F-14.8°C 44% 2.3 mph SW3.7 kmh SW 5.8 mph9.3 kmh 30.88 in1045.7 mb - 0.00 in0.0 mm 0.00 in0.0 mm
10:55 AM 23.7°F-4.6°C 4.9°F-15.1°C 44% 2.3 mph WSW3.7 kmh WSW 3.5 mph5.6 kmh 30.88 in1045.7 mb - 0.00 in0.0 mm 0.00 in0.0 mm
11:00 AM 23.4°F-4.8°C 4.6°F-15.2°C 44% 1.2 mph SSW1.9 kmh SSW 6.9 mph11.1 kmh 30.88 in1045.7 mb - 0.00 in0.0 mm 0.00 in0.0 mm
11:05 AM 24.1°F-4.4°C 5.3°F-14.8°C 44% 4.6 mph SW7.4 kmh SW 4.6 mph7.4 kmh 30.88 in1045.7 mb - 0.00 in0.0 mm 0.00 in0.0 mm
11:10 AM 24.5°F-4.2°C 5.1°F-14.9°C 43% 2.3 mph SW3.7 kmh SW 3.5 mph5.6 kmh 30.88 in1045.7 mb - 0.00 in0.0 mm 0.00 in0.0 mm
11:15 AM 25.3°F-3.7°C 5.3°F-14.8°C 42% 4.6 mph SW7.4 kmh SW 4.6 mph7.4 kmh 30.88 in1045.7 mb - 0.00 in0.0 mm 0.00 in0.0 mm
11:20 AM 24.7°F-4.1°C 3.7°F-15.7°C 40% 2.3 mph S3.7 kmh S 2.3 mph3.7 kmh 30.87 in1045.4 mb - 0.00 in0.0 mm 0.00 in0.0 mm
11:25 AM 24.4°F-4.2°C 4.5°F-15.3°C 42% 2.3 mph SW3.7 kmh SW 4.6 mph7.4 kmh 30.87 in1045.4 mb - 0.00 in0.0 mm 0.00 in0.0 mm
11:30 AM 25.9°F-3.4°C 4.9°F-15.1°C 40% 2.3 mph W3.7 kmh W 3.5 mph5.6 kmh 30.87 in1045.4 mb - 0.00 in0.0 mm 0.00 in0.0 mm
11:35 AM 24.9°F-3.9°C 5.0°F-15.0°C 42% 2.3 mph WSW3.7 kmh WSW 3.5 mph5.6 kmh 30.86 in1045.0 mb - 0.00 in0.0 mm 0.00 in0.0 mm
11:40 AM 25.7°F-3.5°C 5.7°F-14.6°C 42% 1.2 mph WSW1.9 kmh WSW 3.5 mph5.6 kmh 30.86 in1045.0 mb - 0.00 in0.0 mm 0.00 in0.0 mm
11:45 AM 26.0°F-3.3°C 4.4°F-15.3°C 39% 3.5 mph SSE5.6 kmh SSE 4.6 mph7.4 kmh 30.85 in1044.7 mb - 0.00 in0.0 mm 0.00 in0.0 mm
11:50 AM 26.3°F-3.2°C 5.7°F-14.6°C 41% 3.5 mph SSE5.6 kmh SSE 4.6 mph7.4 kmh 30.85 in1044.7 mb - 0.00 in0.0 mm 0.00 in0.0 mm
11:55 AM 26.3°F-3.2°C 5.2°F-14.9°C 40% 3.5 mph S5.6 kmh S 4.6 mph7.4 kmh 30.85 in1044.7 mb - 0.00 in0.0 mm 0.00 in0.0 mm
12:00 PM 27.1°F-2.7°C 5.4°F-14.8°C 39% 3.5 mph SSE5.6 kmh SSE 4.6 mph7.4 kmh 30.84 in1044.4 mb - 0.00 in0.0 mm 0.00 in0.0 mm
12:05 PM 26.3°F-3.2°C 5.2°F-14.9°C 40% 2.3 mph SSE3.7 kmh SSE 4.6 mph7.4 kmh 30.84 in1044.4 mb - 0.00 in0.0 mm 0.00 in0.0 mm
12:10 PM 27.1°F-2.7°C 4.8°F-15.1°C 38% 2.3 mph WSW3.7 kmh WSW 4.6 mph7.4 kmh 30.84 in1044.4 mb - 0.00 in0.0 mm 0.00 in0.0 mm
12:15 PM 27.6°F-2.4°C 5.3°F-14.8°C 38% 3.5 mph WSW5.6 kmh WSW 4.6 mph7.4 kmh 30.84 in1044.4 mb - 0.00 in0.0 mm 0.00 in0.0 mm
12:20 PM 27.1°F-2.7°C 4.8°F-15.1°C 38% 1.2 mph SE1.9 kmh SE 3.5 mph5.6 kmh 30.83 in1044.0 mb - 0.00 in0.0 mm 0.00 in0.0 mm
12:25 PM 28.0°F-2.2°C 5.6°F-14.7°C 38% 4.6 mph SW7.4 kmh SW 5.8 mph9.3 kmh 30.82 in1043.7 mb - 0.00 in0.0 mm 0.00 in0.0 mm
12:30 PM 28.0°F-2.2°C 5.6°F-14.7°C 38% 2.3 mph SSW3.7 kmh SSW 3.5 mph5.6 kmh 30.82 in1043.7 mb - 0.00 in0.0 mm 0.00 in0.0 mm
12:35 PM 28.6°F-1.9°C 5.0°F-15.0°C 36% 4.6 mph SSW7.4 kmh SSW 5.8 mph9.3 kmh 30.81 in1043.3 mb - 0.00 in0.0 mm 0.00 in0.0 mm
12:40 PM 28.6°F-1.9°C 5.0°F-15.0°C 36% 2.3 mph SW3.7 kmh SW 4.6 mph7.4 kmh 30.81 in1043.3 mb - 0.00 in0.0 mm 0.00 in0.0 mm
12:45 PM 28.4°F-2.0°C 5.4°F-14.8°C 37% 3.5 mph WSW5.6 kmh WSW 5.8 mph9.3 kmh 30.81 in1043.3 mb - 0.00 in0.0 mm 0.00 in0.0 mm
12:50 PM 28.7°F-1.8°C 4.4°F-15.3°C 35% 3.5 mph NW5.6 kmh NW 4.6 mph7.4 kmh 30.80 in1043.0 mb - 0.00 in0.0 mm 0.00 in0.0 mm
12:55 PM 28.2°F-2.1°C 4.0°F-15.6°C 35% 1.2 mph WNW1.9 kmh WNW 3.5 mph5.6 kmh 30.80 in1043.0 mb - 0.00 in0.0 mm 0.00 in0.0 mm
01:00 PM 29.7°F-1.3°C 5.4°F-14.8°C 35% 4.6 mph WSW7.4 kmh WSW 6.9 mph11.1 kmh 30.80 in1043.0 mb - 0.00 in0.0 mm 0.00 in0.0 mm
01:05 PM 29.6°F-1.3°C 4.0°F-15.6°C 33% 3.5 mph SW5.6 kmh SW 4.6 mph7.4 kmh 30.79 in1042.7 mb - 0.00 in0.0 mm 0.00 in0.0 mm
01:10 PM 29.8°F-1.2°C 4.8°F-15.1°C 34% 3.5 mph SW5.6 kmh SW 4.6 mph7.4 kmh 30.79 in1042.7 mb - 0.00 in0.0 mm 0.00 in0.0 mm
01:15 PM 29.4°F-1.4°C 3.8°F-15.7°C 33% 4.6 mph N7.4 kmh N 4.6 mph7.4 kmh 30.78 in1042.3 mb - 0.00 in0.0 mm 0.00 in0.0 mm
01:20 PM 30.1°F-1.1°C 3.7°F-15.7°C 32% 3.5 mph WNW5.6 kmh WNW 4.6 mph7.4 kmh 30.78 in1042.3 mb - 0.00 in0.0 mm 0.00 in0.0 mm
01:25 PM 30.9°F-0.6°C 3.8°F-15.7°C 31% 1.2 mph WSW1.9 kmh WSW 3.5 mph5.6 kmh 30.78 in1042.3 mb - 0.00 in0.0 mm 0.00 in0.0 mm
01:30 PM 30.2°F-1.0°C 3.8°F-15.7°C 32% 2.3 mph SSW3.7 kmh SSW 4.6 mph7.4 kmh 30.77 in1042.0 mb - 0.00 in0.0 mm 0.00 in0.0 mm
01:35 PM 30.1°F-1.1°C 3.7°F-15.7°C 32% 1.2 mph SSW1.9 kmh SSW 2.3 mph3.7 kmh 30.77 in1042.0 mb - 0.00 in0.0 mm 0.00 in0.0 mm
01:40 PM 30.5°F-0.8°C 4.1°F-15.5°C 32% 3.5 mph NW5.6 kmh NW 4.6 mph7.4 kmh 30.77 in1042.0 mb - 0.00 in0.0 mm 0.00 in0.0 mm
01:45 PM 30.7°F-0.7°C 4.3°F-15.4°C 32% 3.5 mph NNW5.6 kmh NNW 4.6 mph7.4 kmh 30.77 in1042.0 mb - 0.00 in0.0 mm 0.00 in0.0 mm
01:50 PM 31.1°F-0.5°C 4.6°F-15.2°C 32% 1.2 mph NNW1.9 kmh NNW 5.8 mph9.3 kmh 30.77 in1042.0 mb - 0.00 in0.0 mm 0.00 in0.0 mm
01:55 PM 31.2°F-0.4°C 4.7°F-15.2°C 32% 2.3 mph WNW3.7 kmh WNW 3.5 mph5.6 kmh 30.76 in1041.7 mb - 0.00 in0.0 mm 0.00 in0.0 mm
02:00 PM 31.7°F-0.2°C 4.5°F-15.3°C 31% 2.3 mph WSW3.7 kmh WSW 3.5 mph5.6 kmh 30.76 in1041.7 mb - 0.00 in0.0 mm 0.00 in0.0 mm
02:05 PM 31.3°F-0.4°C 2.6°F-16.3°C 29% 2.3 mph SW3.7 kmh SW 4.6 mph7.4 kmh 30.76 in1041.7 mb - 0.00 in0.0 mm 0.00 in0.0 mm
02:10 PM 31.6°F-0.2°C 4.4°F-15.3°C 31% 2.3 mph WSW3.7 kmh WSW 4.6 mph7.4 kmh 30.75 in1041.3 mb - 0.00 in0.0 mm 0.00 in0.0 mm
02:15 PM 31.2°F-0.4°C 4.0°F-15.6°C 31% 2.3 mph WSW3.7 kmh WSW 3.5 mph5.6 kmh 30.75 in1041.3 mb - 0.00 in0.0 mm 0.00 in0.0 mm
02:20 PM 30.6°F-0.8°C 4.2°F-15.4°C 32% 2.3 mph WSW3.7 kmh WSW 4.6 mph7.4 kmh 30.75 in1041.3 mb - 0.00 in0.0 mm 0.00 in0.0 mm
02:25 PM 32.3°F0.2°C 5.0°F-15.0°C 31% 1.2 mph NNW1.9 kmh NNW 3.5 mph5.6 kmh 30.75 in1041.3 mb - 0.00 in0.0 mm 0.00 in0.0 mm
02:30 PM 32.5°F0.3°C 4.4°F-15.3°C 30% 3.5 mph NE5.6 kmh NE 4.6 mph7.4 kmh 30.74 in1041.0 mb - 0.00 in0.0 mm 0.00 in0.0 mm
02:35 PM 32.6°F0.3°C 3.8°F-15.7°C 29% 1.2 mph NW1.9 kmh NW 2.3 mph3.7 kmh 30.74 in1041.0 mb - 0.00 in0.0 mm 0.00 in0.0 mm
02:40 PM 33.3°F0.7°C 4.4°F-15.3°C 29% 2.3 mph WNW3.7 kmh WNW 3.5 mph5.6 kmh 30.74 in1041.0 mb - 0.00 in0.0 mm 0.00 in0.0 mm
02:45 PM 32.4°F0.2°C 2.8°F-16.2°C 28% 1.2 mph NE1.9 kmh NE 2.3 mph3.7 kmh 30.74 in1041.0 mb - 0.00 in0.0 mm 0.00 in0.0 mm
02:50 PM 31.8°F-0.1°C 3.1°F-16.1°C 29% 1.2 mph NE1.9 kmh NE 2.3 mph3.7 kmh 30.74 in1041.0 mb - 0.00 in0.0 mm 0.00 in0.0 mm
02:55 PM 32.0°F0.0°C 3.2°F-16.0°C 29% 3.5 mph NE5.6 kmh NE 6.9 mph11.1 kmh 30.74 in1041.0 mb - 0.00 in0.0 mm 0.00 in0.0 mm
03:00 PM 32.2°F0.1°C 4.2°F-15.4°C 30% 3.5 mph NE5.6 kmh NE 4.6 mph7.4 kmh 30.74 in1041.0 mb - 0.00 in0.0 mm 0.00 in0.0 mm
03:05 PM 32.4°F0.2°C 4.3°F-15.4°C 30% 2.3 mph SSW3.7 kmh SSW 3.5 mph5.6 kmh 30.73 in1040.6 mb - 0.00 in0.0 mm 0.00 in0.0 mm
03:10 PM 32.7°F0.4°C 3.9°F-15.6°C 29% 4.6 mph NW7.4 kmh NW 4.6 mph7.4 kmh 30.73 in1040.6 mb - 0.00 in0.0 mm 0.00 in0.0 mm
03:15 PM 32.7°F0.4°C 3.9°F-15.6°C 29% 2.3 mph SW3.7 kmh SW 3.5 mph5.6 kmh 30.73 in1040.6 mb - 0.00 in0.0 mm 0.00 in0.0 mm
03:20 PM 32.8°F0.4°C 4.0°F-15.6°C 29% 2.3 mph E3.7 kmh E 5.8 mph9.3 kmh 30.73 in1040.6 mb - 0.00 in0.0 mm 0.00 in0.0 mm
03:25 PM 32.7°F0.4°C 4.6°F-15.2°C 30% 2.3 mph SSE3.7 kmh SSE 3.5 mph5.6 kmh 30.73 in1040.6 mb - 0.00 in0.0 mm 0.00 in0.0 mm
03:30 PM 32.8°F0.4°C 3.9°F-15.6°C 29% 3.5 mph SE5.6 kmh SE 4.6 mph7.4 kmh 30.73 in1040.6 mb - 0.00 in0.0 mm 0.00 in0.0 mm
03:35 PM 32.7°F0.4°C 3.9°F-15.6°C 29% 4.6 mph ESE7.4 kmh ESE 5.8 mph9.3 kmh 30.73 in1040.6 mb - 0.00 in0.0 mm 0.00 in0.0 mm
03:40 PM 32.6°F0.3°C 3.8°F-15.7°C 29% 2.3 mph E3.7 kmh E 3.5 mph5.6 kmh 30.73 in1040.6 mb - 0.00 in0.0 mm 0.00 in0.0 mm
03:45 PM 31.8°F-0.1°C 3.1°F-16.1°C 29% 1.2 mph E1.9 kmh E 2.3 mph3.7 kmh 30.73 in1040.6 mb - 0.00 in0.0 mm 0.00 in0.0 mm
03:50 PM 32.2°F0.1°C 4.2°F-15.4°C 30% 3.5 mph SW5.6 kmh SW 3.5 mph5.6 kmh 30.73 in1040.6 mb - 0.00 in0.0 mm 0.00 in0.0 mm
03:55 PM 32.6°F0.3°C 3.8°F-15.7°C 29% 1.2 mph SW1.9 kmh SW 3.5 mph5.6 kmh 30.73 in1040.6 mb - 0.00 in0.0 mm 0.00 in0.0 mm
04:00 PM 32.6°F0.3°C 3.8°F-15.7°C 29% 1.2 mph SW1.9 kmh SW 1.2 mph1.9 kmh 30.73 in1040.6 mb - 0.00 in0.0 mm 0.00 in0.0 mm
04:05 PM 32.8°F0.4°C 3.2°F-16.0°C 28% 4.6 mph NE7.4 kmh NE 4.6 mph7.4 kmh 30.73 in1040.6 mb - 0.00 in0.0 mm 0.00 in0.0 mm
04:10 PM 32.4°F0.2°C 2.8°F-16.2°C 28% Calm Calm 1.2 mph1.9 kmh 30.73 in1040.6 mb - 0.00 in0.0 mm 0.00 in0.0 mm
04:15 PM 32.2°F0.1°C 4.2°F-15.4°C 30% 2.3 mph ESE3.7 kmh ESE 4.6 mph7.4 kmh 30.73 in1040.6 mb - 0.00 in0.0 mm 0.00 in0.0 mm
04:20 PM 32.2°F0.1°C 4.2°F-15.4°C 30% 1.2 mph SE1.9 kmh SE 4.6 mph7.4 kmh 30.73 in1040.6 mb - 0.00 in0.0 mm 0.00 in0.0 mm
04:25 PM 32.3°F0.2°C 4.3°F-15.4°C 30% 1.2 mph ESE1.9 kmh ESE 5.8 mph9.3 kmh 30.73 in1040.6 mb - 0.00 in0.0 mm 0.00 in0.0 mm
04:30 PM 32.8°F0.4°C 4.0°F-15.6°C 29% 2.3 mph E3.7 kmh E 2.3 mph3.7 kmh 30.72 in1040.3 mb - 0.00 in0.0 mm 0.00 in0.0 mm
04:35 PM 32.5°F0.3°C 3.7°F-15.7°C 29% 2.3 mph E3.7 kmh E 2.3 mph3.7 kmh 30.72 in1040.3 mb - 0.00 in0.0 mm 0.00 in0.0 mm
04:40 PM 32.2°F0.1°C 3.5°F-15.8°C 29% Calm Calm 1.2 mph1.9 kmh 30.72 in1040.3 mb - 0.00 in0.0 mm 0.00 in0.0 mm
04:45 PM 32.1°F0.1°C 3.4°F-15.9°C 29% 1.2 mph E1.9 kmh E 3.5 mph5.6 kmh 30.72 in1040.3 mb - 0.00 in0.0 mm 0.00 in0.0 mm
04:50 PM 32.0°F0.0°C 4.0°F-15.6°C 30% 1.2 mph E1.9 kmh E 2.3 mph3.7 kmh 30.72 in1040.3 mb - 0.00 in0.0 mm 0.00 in0.0 mm
04:55 PM 32.1°F0.1°C 3.4°F-15.9°C 29% 1.2 mph E1.9 kmh E 2.3 mph3.7 kmh 30.72 in1040.3 mb - 0.00 in0.0 mm 0.00 in0.0 mm
05:00 PM 32.0°F0.0°C 4.0°F-15.6°C 30% 1.2 mph E1.9 kmh E 2.3 mph3.7 kmh 30.72 in1040.3 mb - 0.00 in0.0 mm 0.00 in0.0 mm
05:05 PM 31.9°F-0.1°C 3.9°F-15.6°C 30% Calm Calm 2.3 mph3.7 kmh 30.72 in1040.3 mb - 0.00 in0.0 mm 0.00 in0.0 mm
05:10 PM 31.8°F-0.1°C 3.9°F-15.6°C 30% 2.3 mph E3.7 kmh E 3.5 mph5.6 kmh 30.72 in1040.3 mb - 0.00 in0.0 mm 0.00 in0.0 mm
05:15 PM 31.8°F-0.1°C 3.8°F-15.7°C 30% 3.5 mph E5.6 kmh E 3.5 mph5.6 kmh 30.72 in1040.3 mb - 0.00 in0.0 mm 0.00 in0.0 mm
05:20 PM 31.7°F-0.2°C 3.7°F-15.7°C 30% 4.6 mph E7.4 kmh E 5.8 mph9.3 kmh 30.71 in1040.0 mb - 0.00 in0.0 mm 0.00 in0.0 mm
05:25 PM 31.5°F-0.3°C 3.6°F-15.8°C 30% 2.3 mph E3.7 kmh E 3.5 mph5.6 kmh 30.71 in1040.0 mb - 0.00 in0.0 mm 0.00 in0.0 mm
05:30 PM 31.3°F-0.4°C 3.4°F-15.9°C 30% 2.3 mph E3.7 kmh E 2.3 mph3.7 kmh 30.71 in1040.0 mb - 0.00 in0.0 mm 0.00 in0.0 mm
05:35 PM 31.1°F-0.5°C 4.0°F-15.6°C 31% 2.3 mph E3.7 kmh E 3.5 mph5.6 kmh 30.71 in1040.0 mb - 0.00 in0.0 mm 0.00 in0.0 mm
05:40 PM 30.8°F-0.7°C 3.6°F-15.8°C 31% Calm Calm 1.2 mph1.9 kmh 30.70 in1039.6 mb - 0.00 in0.0 mm 0.00 in0.0 mm
05:45 PM 30.3°F-0.9°C 3.9°F-15.6°C 32% 1.2 mph E1.9 kmh E 2.3 mph3.7 kmh 30.70 in1039.6 mb - 0.00 in0.0 mm 0.00 in0.0 mm
05:50 PM 30.1°F-1.1°C 3.7°F-15.7°C 32% 1.2 mph E1.9 kmh E 2.3 mph3.7 kmh 30.70 in1039.6 mb - 0.00 in0.0 mm 0.00 in0.0 mm
05:55 PM 30.0°F-1.1°C 4.3°F-15.4°C 33% 1.2 mph E1.9 kmh E 2.3 mph3.7 kmh 30.70 in1039.6 mb - 0.00 in0.0 mm 0.00 in0.0 mm
06:00 PM 29.8°F-1.2°C 4.2°F-15.4°C 33% 1.2 mph E1.9 kmh E 1.2 mph1.9 kmh 30.70 in1039.6 mb - 0.00 in0.0 mm 0.00 in0.0 mm
06:05 PM 29.6°F-1.3°C 4.6°F-15.2°C 34% 2.3 mph E3.7 kmh E 3.5 mph5.6 kmh 30.70 in1039.6 mb - 0.00 in0.0 mm 0.00 in0.0 mm
06:10 PM 29.4°F-1.4°C 4.5°F-15.3°C 34% 1.2 mph E1.9 kmh E 1.2 mph1.9 kmh 30.70 in1039.6 mb - 0.00 in0.0 mm 0.00 in0.0 mm
06:15 PM 29.2°F-1.6°C 4.9°F-15.1°C 35% Calm Calm 1.2 mph1.9 kmh 30.70 in1039.6 mb - 0.00 in0.0 mm 0.00 in0.0 mm
06:20 PM 28.7°F-1.8°C 4.5°F-15.3°C 35% 1.2 mph E1.9 kmh E 2.3 mph3.7 kmh 30.70 in1039.6 mb - 0.00 in0.0 mm 0.00 in0.0 mm
06:25 PM 28.8°F-1.8°C 5.1°F-14.9°C 36% 1.2 mph E1.9 kmh E 2.3 mph3.7 kmh 30.70 in1039.6 mb - 0.00 in0.0 mm 0.00 in0.0 mm
06:30 PM 28.5°F-1.9°C 4.9°F-15.1°C 36% 1.2 mph E1.9 kmh E 2.3 mph3.7 kmh 30.70 in1039.6 mb - 0.00 in0.0 mm 0.00 in0.0 mm
06:35 PM 28.6°F-1.9°C 5.6°F-14.7°C 37% 3.5 mph E5.6 kmh E 4.6 mph7.4 kmh 30.70 in1039.6 mb - 0.00 in0.0 mm 0.00 in0.0 mm
06:40 PM 28.6°F-1.9°C 5.5°F-14.7°C 37% 2.3 mph E3.7 kmh E 3.5 mph5.6 kmh 30.70 in1039.6 mb - 0.00 in0.0 mm 0.00 in0.0 mm
06:45 PM 28.7°F-1.8°C 5.6°F-14.7°C 37% 3.5 mph E5.6 kmh E 5.8 mph9.3 kmh 30.70 in1039.6 mb - 0.00 in0.0 mm 0.00 in0.0 mm
06:50 PM 28.6°F-1.9°C 6.2°F-14.3°C 38% 2.3 mph E3.7 kmh E 2.3 mph3.7 kmh 30.70 in1039.6 mb - 0.00 in0.0 mm 0.00 in0.0 mm
06:55 PM 28.4°F-2.0°C 6.5°F-14.2°C 39% 3.5 mph E5.6 kmh E 5.8 mph9.3 kmh 30.69 in1039.3 mb - 0.00 in0.0 mm 0.00 in0.0 mm
07:00 PM 28.2°F-2.1°C 7.0°F-13.9°C 40% 2.3 mph E3.7 kmh E 3.5 mph5.6 kmh 30.69 in1039.3 mb - 0.00 in0.0 mm 0.00 in0.0 mm
07:05 PM 28.1°F-2.2°C 6.8°F-14.0°C 40% 2.3 mph ESE3.7 kmh ESE 4.6 mph7.4 kmh 30.70 in1039.6 mb - 0.00 in0.0 mm 0.00 in0.0 mm
07:10 PM 27.9°F-2.3°C 7.2°F-13.8°C 41% 1.2 mph ESE1.9 kmh ESE 3.5 mph5.6 kmh 30.70 in1039.6 mb - 0.00 in0.0 mm 0.00 in0.0 mm
07:15 PM 27.7°F-2.4°C 7.0°F-13.9°C 41% 1.2 mph ESE1.9 kmh ESE 2.3 mph3.7 kmh 30.69 in1039.3 mb - 0.00 in0.0 mm 0.00 in0.0 mm
07:20 PM 27.3°F-2.6°C 7.2°F-13.8°C 42% 1.2 mph ESE1.9 kmh ESE 2.3 mph3.7 kmh 30.70 in1039.6 mb - 0.00 in0.0 mm 0.00 in0.0 mm
07:25 PM 27.1°F-2.7°C 7.5°F-13.6°C 43% 1.2 mph ESE1.9 kmh ESE 3.5 mph5.6 kmh 30.69 in1039.3 mb - 0.00 in0.0 mm 0.00 in0.0 mm
07:30 PM 27.0°F-2.8°C 7.5°F-13.6°C 43% 1.2 mph ESE1.9 kmh ESE 2.3 mph3.7 kmh 30.69 in1039.3 mb - 0.00 in0.0 mm 0.00 in0.0 mm
07:35 PM 26.9°F-2.8°C 7.3°F-13.7°C 43% 1.2 mph ESE1.9 kmh ESE 3.5 mph5.6 kmh 30.69 in1039.3 mb - 0.00 in0.0 mm 0.00 in0.0 mm
07:40 PM 26.7°F-2.9°C 7.6°F-13.6°C 44% 1.2 mph ESE1.9 kmh ESE 1.2 mph1.9 kmh 30.70 in1039.6 mb - 0.00 in0.0 mm 0.00 in0.0 mm
07:45 PM 26.5°F-3.1°C 7.5°F-13.6°C 44% 1.2 mph ESE1.9 kmh ESE 2.3 mph3.7 kmh 30.70 in1039.6 mb - 0.00 in0.0 mm 0.00 in0.0 mm
07:50 PM 26.4°F-3.1°C 7.9°F-13.4°C 45% 1.2 mph ESE1.9 kmh ESE 2.3 mph3.7 kmh 30.69 in1039.3 mb - 0.00 in0.0 mm 0.00 in0.0 mm
07:55 PM 26.2°F-3.2°C 7.7°F-13.5°C 45% 1.2 mph ESE1.9 kmh ESE 2.3 mph3.7 kmh 30.69 in1039.3 mb - 0.00 in0.0 mm 0.00 in0.0 mm
08:00 PM 26.0°F-3.3°C 8.1°F-13.3°C 46% 1.2 mph ESE1.9 kmh ESE 2.3 mph3.7 kmh 30.69 in1039.3 mb - 0.00 in0.0 mm 0.00 in0.0 mm
08:05 PM 25.7°F-3.5°C 8.2°F-13.2°C 47% 1.2 mph ESE1.9 kmh ESE 2.3 mph3.7 kmh 30.69 in1039.3 mb - 0.00 in0.0 mm 0.00 in0.0 mm
08:10 PM 25.6°F-3.6°C 8.1°F-13.3°C 47% Calm Calm 1.2 mph1.9 kmh 30.69 in1039.3 mb - 0.00 in0.0 mm 0.00 in0.0 mm
08:15 PM 25.4°F-3.7°C 8.4°F-13.1°C 48% 1.2 mph ESE1.9 kmh ESE 2.3 mph3.7 kmh 30.69 in1039.3 mb - 0.00 in0.0 mm 0.00 in0.0 mm
08:20 PM 25.1°F-3.8°C 8.6°F-13.0°C 49% 1.2 mph ESE1.9 kmh ESE 2.3 mph3.7 kmh 30.69 in1039.3 mb - 0.00 in0.0 mm 0.00 in0.0 mm
08:25 PM 25.0°F-3.9°C 8.5°F-13.1°C 49% 1.2 mph ESE1.9 kmh ESE 2.3 mph3.7 kmh 30.69 in1039.3 mb - 0.00 in0.0 mm 0.00 in0.0 mm
08:30 PM 24.6°F-4.1°C 8.6°F-13.0°C 50% 1.2 mph ESE1.9 kmh ESE 2.3 mph3.7 kmh 30.69 in1039.3 mb - 0.00 in0.0 mm 0.00 in0.0 mm
08:35 PM 24.4°F-4.2°C 8.8°F-12.9°C 51% 1.2 mph ESE1.9 kmh ESE 2.3 mph3.7 kmh 30.69 in1039.3 mb - 0.00 in0.0 mm 0.00 in0.0 mm
08:40 PM 24.3°F-4.3°C 8.7°F-12.9°C 51% 1.2 mph ESE1.9 kmh ESE 2.3 mph3.7 kmh 30.69 in1039.3 mb - 0.00 in0.0 mm 0.00 in0.0 mm
08:45 PM 24.3°F-4.3°C 9.2°F-12.7°C 52% Calm Calm 1.2 mph1.9 kmh 30.69 in1039.3 mb - 0.00 in0.0 mm 0.00 in0.0 mm
08:50 PM 24.1°F-4.4°C 9.0°F-12.8°C 52% 1.2 mph ESE1.9 kmh ESE 1.2 mph1.9 kmh 30.69 in1039.3 mb - 0.00 in0.0 mm 0.00 in0.0 mm
08:55 PM 23.9°F-4.5°C 8.8°F-12.9°C 52% 1.2 mph ESE1.9 kmh ESE 2.3 mph3.7 kmh 30.69 in1039.3 mb - 0.00 in0.0 mm 0.00 in0.0 mm
09:00 PM 23.8°F-4.6°C 8.7°F-12.9°C 52% 1.2 mph ESE1.9 kmh ESE 1.2 mph1.9 kmh 30.69 in1039.3 mb - 0.00 in0.0 mm 0.00 in0.0 mm
09:05 PM 23.7°F-4.6°C 8.7°F-12.9°C 52% 1.2 mph ESE1.9 kmh ESE 1.2 mph1.9 kmh 30.69 in1039.3 mb - 0.00 in0.0 mm 0.00 in0.0 mm
09:10 PM 23.6°F-4.7°C 8.9°F-12.8°C 53% 1.2 mph ESE1.9 kmh ESE 2.3 mph3.7 kmh 30.69 in1039.3 mb - 0.00 in0.0 mm 0.00 in0.0 mm
09:15 PM 24.0°F-4.4°C 9.3°F-12.6°C 53% 2.3 mph ESE3.7 kmh ESE 3.5 mph5.6 kmh 30.69 in1039.3 mb - 0.00 in0.0 mm 0.00 in0.0 mm
09:20 PM 24.1°F-4.4°C 9.4°F-12.6°C 53% 1.2 mph ESE1.9 kmh ESE 2.3 mph3.7 kmh 30.69 in1039.3 mb - 0.00 in0.0 mm 0.00 in0.0 mm
09:25 PM 24.0°F-4.4°C 9.4°F-12.6°C 53% 1.2 mph ESE1.9 kmh ESE 2.3 mph3.7 kmh 30.69 in1039.3 mb - 0.00 in0.0 mm 0.00 in0.0 mm
09:30 PM 24.1°F-4.4°C 9.4°F-12.6°C 53% 2.3 mph SE3.7 kmh SE 3.5 mph5.6 kmh 30.69 in1039.3 mb - 0.00 in0.0 mm 0.00 in0.0 mm
09:35 PM 24.5°F-4.2°C 9.3°F-12.6°C 52% 2.3 mph SE3.7 kmh SE 2.3 mph3.7 kmh 30.69 in1039.3 mb - 0.00 in0.0 mm 0.00 in0.0 mm
09:40 PM 24.8°F-4.0°C 8.8°F-12.9°C 50% 2.3 mph SE3.7 kmh SE 2.3 mph3.7 kmh 30.69 in1039.3 mb - 0.00 in0.0 mm 0.00 in0.0 mm
09:45 PM 24.9°F-3.9°C 8.8°F-12.9°C 50% 2.3 mph SE3.7 kmh SE 2.3 mph3.7 kmh 30.69 in1039.3 mb - 0.00 in0.0 mm 0.00 in0.0 mm
09:50 PM 24.9°F-3.9°C 8.8°F-12.9°C 50% 2.3 mph SE3.7 kmh SE 2.3 mph3.7 kmh 30.69 in1039.3 mb - 0.00 in0.0 mm 0.00 in0.0 mm
09:55 PM 24.6°F-4.1°C 8.6°F-13.0°C 50% 1.2 mph SE1.9 kmh SE 2.3 mph3.7 kmh 30.69 in1039.3 mb - 0.00 in0.0 mm 0.00 in0.0 mm
10:00 PM 24.5°F-4.2°C 8.9°F-12.8°C 51% 1.2 mph SE1.9 kmh SE 2.3 mph3.7 kmh 30.69 in1039.3 mb - 0.00 in0.0 mm 0.00 in0.0 mm
10:05 PM 24.2°F-4.3°C 8.6°F-13.0°C 51% 1.2 mph SE1.9 kmh SE 2.3 mph3.7 kmh 30.69 in1039.3 mb - 0.00 in0.0 mm 0.00 in0.0 mm
10:10 PM 23.8°F-4.6°C 8.7°F-12.9°C 52% 1.2 mph SE1.9 kmh SE 3.5 mph5.6 kmh 30.69 in1039.3 mb - 0.00 in0.0 mm 0.00 in0.0 mm
10:15 PM 23.8°F-4.6°C 8.7°F-12.9°C 52% 1.2 mph SE1.9 kmh SE 2.3 mph3.7 kmh 30.69 in1039.3 mb - 0.00 in0.0 mm 0.00 in0.0 mm
10:20 PM 23.9°F-4.5°C 8.8°F-12.9°C 52% 2.3 mph SE3.7 kmh SE 4.6 mph7.4 kmh 30.69 in1039.3 mb - 0.00 in0.0 mm 0.00 in0.0 mm
10:25 PM 24.1°F-4.4°C 9.0°F-12.8°C 52% 2.3 mph SE3.7 kmh SE 3.5 mph5.6 kmh 30.69 in1039.3 mb - 0.00 in0.0 mm 0.00 in0.0 mm
10:30 PM 24.6°F-4.1°C 8.6°F-13.0°C 50% 2.3 mph SE3.7 kmh SE 3.5 mph5.6 kmh 30.69 in1039.3 mb - 0.00 in0.0 mm 0.00 in0.0 mm
10:35 PM 24.7°F-4.1°C 9.1°F-12.7°C 51% 2.3 mph SE3.7 kmh SE 3.5 mph5.6 kmh 30.69 in1039.3 mb - 0.00 in0.0 mm 0.00 in0.0 mm
10:40 PM 24.7°F-4.1°C 8.7°F-12.9°C 50% 2.3 mph SE3.7 kmh SE 2.3 mph3.7 kmh 30.69 in1039.3 mb - 0.00 in0.0 mm 0.00 in0.0 mm
10:45 PM 24.4°F-4.2°C 8.4°F-13.1°C 50% 2.3 mph SE3.7 kmh SE 3.5 mph5.6 kmh 30.69 in1039.3 mb - 0.00 in0.0 mm 0.00 in0.0 mm
10:50 PM 24.2°F-4.3°C 8.7°F-12.9°C 51% 1.2 mph SE1.9 kmh SE 2.3 mph3.7 kmh 30.69 in1039.3 mb - 0.00 in0.0 mm 0.00 in0.0 mm
10:55 PM 24.2°F-4.3°C 8.6°F-13.0°C 51% 1.2 mph SE1.9 kmh SE 4.6 mph7.4 kmh 30.69 in1039.3 mb - 0.00 in0.0 mm 0.00 in0.0 mm
11:00 PM 24.1°F-4.4°C 9.0°F-12.8°C 52% 1.2 mph SE1.9 kmh SE 2.3 mph3.7 kmh 30.69 in1039.3 mb - 0.00 in0.0 mm 0.00 in0.0 mm
11:05 PM 24.1°F-4.4°C 8.5°F-13.1°C 51% 2.3 mph SE3.7 kmh SE 2.3 mph3.7 kmh 30.69 in1039.3 mb - 0.00 in0.0 mm 0.00 in0.0 mm
11:10 PM 24.1°F-4.4°C 9.0°F-12.8°C 52% 2.3 mph SE3.7 kmh SE 3.5 mph5.6 kmh 30.69 in1039.3 mb - 0.00 in0.0 mm 0.00 in0.0 mm
11:15 PM 24.0°F-4.4°C 8.9°F-12.8°C 52% 2.3 mph SE3.7 kmh SE 3.5 mph5.6 kmh 30.69 in1039.3 mb - 0.00 in0.0 mm 0.00 in0.0 mm
11:20 PM 24.0°F-4.4°C 8.9°F-12.8°C 52% 1.2 mph SE1.9 kmh SE 2.3 mph3.7 kmh 30.69 in1039.3 mb - 0.00 in0.0 mm 0.00 in0.0 mm
11:25 PM 23.6°F-4.7°C 9.0°F-12.8°C 53% 2.3 mph SE3.7 kmh SE 3.5 mph5.6 kmh 30.69 in1039.3 mb - 0.00 in0.0 mm 0.00 in0.0 mm
11:30 PM 23.6°F-4.7°C 9.0°F-12.8°C 53% 2.3 mph SE3.7 kmh SE 3.5 mph5.6 kmh 30.69 in1039.3 mb - 0.00 in0.0 mm 0.00 in0.0 mm
11:35 PM 23.9°F-4.5°C 8.8°F-12.9°C 52% 2.3 mph SE3.7 kmh SE 2.3 mph3.7 kmh 30.69 in1039.3 mb - 0.00 in0.0 mm 0.00 in0.0 mm
11:40 PM 23.9°F-4.5°C 8.8°F-12.9°C 52% 2.3 mph SE3.7 kmh SE 4.6 mph7.4 kmh 30.69 in1039.3 mb - 0.00 in0.0 mm 0.00 in0.0 mm
11:45 PM 23.9°F-4.5°C 8.8°F-12.9°C 52% 2.3 mph SE3.7 kmh SE 4.6 mph7.4 kmh 30.69 in1039.3 mb - 0.00 in0.0 mm 0.00 in0.0 mm
11:50 PM 24.0°F-4.4°C 8.9°F-12.8°C 52% 2.3 mph SE3.7 kmh SE 4.6 mph7.4 kmh 30.68 in1038.9 mb - 0.00 in0.0 mm 0.00 in0.0 mm
11:55 PM 24.0°F-4.4°C 8.9°F-12.8°C 52% 2.3 mph SE3.7 kmh SE 3.5 mph5.6 kmh 30.68 in1038.9 mb - 0.00 in0.0 mm 0.00 in0.0 mm